Time;durP1;ratioP1;P1;durP2;ratioP2;P2;SDS_P1;SDS_P2;PMS_P1;PMS_P2;Temp;Humidity;BMP_temperature;BMP_pressure;BME280_temperature;BME280_humidity;BME280_pressure;Samples;Min_cycle;Max_cycle;Signal;HPM_P1;HPM_P2
2021/03/25 00:01:12;;;;;;;13.57;6.13;;;;;;;-1.04;61.50;99800.67;1779436;79;21567;-59
2021/03/25 00:03:41;;;;;;;13.47;6.17;;;;;;;-1.02;61.56;99809.92;1812996;77;21217;-58
2021/03/25 00:06:09;;;;;;;14.53;6.07;;;;;;;-1.01;61.61;99800.64;1816646;77;21761;-58
2021/03/25 00:08:36;;;;;;;19.07;7.63;;;;;;;-0.99;61.48;99800.21;1784650;79;21186;-58
2021/03/25 00:11:05;;;;;;;13.77;4.83;;;;;;;-0.99;61.56;99800.65;1813915;77;21202;-59
2021/03/25 00:13:33;;;;;;;12.43;5.43;;;;;;;-1.01;61.62;99798.44;1817183;77;21387;-58
2021/03/25 00:16:01;;;;;;;13.63;5.07;;;;;;;-1.01;61.57;99796.68;1815431;77;21622;-58
2021/03/25 00:18:31;;;;;;;15.67;7.43;;;;;;;-1.00;61.59;99794.48;1777222;78;21607;-61
2021/03/25 00:20:59;;;;;;;14.33;6.23;;;;;;;-1.01;61.62;99789.19;1813749;77;21163;-61
2021/03/25 00:23:27;;;;;;;13.83;6.00;;;;;;;-1.04;61.64;99788.78;1777429;78;21190;-61
2021/03/25 00:25:54;;;;;;;13.20;4.93;;;;;;;-1.05;61.71;99791.42;1791005;78;21393;-61
2021/03/25 00:28:22;;;;;;;10.53;5.17;;;;;;;-1.05;61.71;99796.70;1785424;78;21231;-60
2021/03/25 00:30:49;;;;;;;12.83;4.57;;;;;;;-1.06;61.84;99790.53;1764559;79;21166;-60
2021/03/25 00:33:18;;;;;;;14.97;5.70;;;;;;;-1.05;61.82;99792.30;1759146;78;21589;-60
2021/03/25 00:35:47;;;;;;;12.27;4.87;;;;;;;-1.02;61.81;99801.52;1769406;80;21615;-61
2021/03/25 00:38:17;;;;;;;17.40;4.93;;;;;;;-1.01;61.80;99797.12;1738961;80;21197;-60
2021/03/25 00:40:46;;;;;;;13.90;4.57;;;;;;;-0.99;61.74;99801.53;1740307;80;21212;-60
2021/03/25 00:43:18;;;;;;;15.20;5.43;;;;;;;-0.98;61.66;99796.69;1754351;79;21192;-60
2021/03/25 00:45:49;;;;;;;14.53;3.58;;;;;;;-0.96;61.63;99790.97;1772254;79;21134;-60
2021/03/25 00:48:18;;;;;;;10.77;5.53;;;;;;;-0.93;61.58;99790.06;1771830;80;21633;-58
2021/03/25 00:50:50;;;;;;;12.83;5.03;;;;;;;-0.93;61.58;99793.59;1757524;79;21380;-57
2021/03/25 00:53:22;;;;;;;14.93;4.93;;;;;;;-0.92;61.63;99789.19;1773844;80;21911;-58
2021/03/25 00:55:49;;;;;;;11.97;6.10;;;;;;;-0.90;61.54;99800.64;1773387;79;21105;-58
2021/03/25 00:58:18;;;;;;;14.00;5.50;;;;;;;-0.90;61.45;99791.39;1755978;80;21473;-58
2021/03/25 01:00:45;;;;;;;13.10;4.30;;;;;;;-0.90;61.40;99788.31;1774498;78;21580;-59
2021/03/25 01:03:14;;;;;;;10.63;4.23;;;;;;;-0.91;61.33;99789.63;1775119;80;21195;-58
2021/03/25 01:05:42;;;;;;;12.37;5.40;;;;;;;-0.92;61.30;99786.10;1762843;80;21033;-58
2021/03/25 01:08:32;;;;;;;13.90;5.30;;;;;;;-0.91;61.32;99790.51;1775543;78;21374;-58
2021/03/25 01:11:17;;;;;;;14.97;5.43;;;;;;;-0.93;61.31;99790.94;1775131;78;21121;-58
2021/03/25 01:13:49;;;;;;;14.67;5.73;;;;;;;-0.95;61.31;99796.70;1769156;78;21545;-58
2021/03/25 01:16:37;;;;;;;22.77;8.70;;;;;;;-0.98;61.43;99794.05;1760065;79;21363;-59
2021/03/25 01:19:21;;;;;;;20.57;8.70;;;;;;;-0.96;61.50;99794.05;1775503;80;21019;-59
2021/03/25 01:21:50;;;;;;;17.10;7.10;;;;;;;-0.98;61.52;99794.48;1774696;78;21525;-58
2021/03/25 01:24:18;;;;;;;16.93;6.47;;;;;;;-1.00;61.54;99787.00;1770369;78;21082;-58
2021/03/25 01:26:47;;;;;;;9.70;4.40;;;;;;;-0.99;61.58;99788.32;1772250;80;21129;-58
2021/03/25 01:29:15;;;;;;;10.50;5.20;;;;;;;-1.00;61.61;99794.48;1787897;77;21681;-58
2021/03/25 01:31:43;;;;;;;9.33;3.73;;;;;;;-1.03;61.69;99792.30;1822267;77;21115;-58
2021/03/25 01:34:15;;;;;;;11.20;3.70;;;;;;;-1.08;61.73;99793.61;1780997;77;21127;-58
2021/03/25 01:36:45;;;;;;;8.90;3.10;;;;;;;-1.09;61.80;99781.28;1804630;78;21111;-57
2021/03/25 01:39:13;;;;;;;11.57;3.70;;;;;;;-1.09;61.83;99790.53;1781666;78;21128;-58
2021/03/25 01:41:42;;;;;;;9.00;3.43;;;;;;;-1.12;61.83;99783.95;1805410;77;21332;-58
2021/03/25 01:44:35;;;;;;;7.17;3.07;;;;;;;-1.11;61.86;99783.51;1780979;78;21462;-58
2021/03/25 01:47:06;;;;;;;9.95;3.22;;;;;;;-1.12;61.91;99785.27;1806014;78;21099;-57
2021/03/25 01:49:34;;;;;;;8.87;2.63;;;;;;;-1.14;62.03;99783.06;1768428;80;21230;-57
2021/03/25 01:52:25;;;;;;;9.20;2.63;;;;;;;-1.15;62.05;99782.62;1803682;78;21195;-57
2021/03/25 01:55:25;;;;;;;9.30;3.00;;;;;;;-1.15;62.11;99791.86;1769781;78;22275;-57
2021/03/25 01:58:10;;;;;;;8.37;2.53;;;;;;;-1.18;62.16;99789.21;1782533;79;21865;-57
2021/03/25 02:01:03;;;;;;;9.10;2.97;;;;;;;-1.21;62.13;99791.88;1779355;79;21477;-57
2021/03/25 02:03:47;;;;;;;6.37;1.77;;;;;;;-1.23;62.29;99789.67;1745784;79;21092;-57
2021/03/25 02:06:34;;;;;;;8.88;2.20;;;;;;;-1.25;62.38;99787.46;1773469;79;21577;-57
2021/03/25 02:09:25;;;;;;;11.13;3.30;;;;;;;-1.26;62.41;99794.94;1777842;79;22335;-58
2021/03/25 02:12:25;;;;;;;7.10;2.47;;;;;;;-1.24;62.40;99787.91;1860507;74;25502;-57
2021/03/25 02:15:08;;;;;;;6.50;2.20;;;;;;;-1.31;62.28;99799.35;1830189;75;21154;-57
2021/03/25 02:17:43;;;;;;;6.72;1.85;;;;;;;-1.36;62.34;99791.41;1835969;75;26840;-58
2021/03/25 02:20:53;;;;;;;7.83;4.10;;;;;;;-1.33;62.36;99783.94;1856064;75;27746;-58
2021/03/25 02:23:47;;;;;;;8.10;2.95;;;;;;;-1.33;62.30;99786.58;1851138;75;21053;-57
2021/03/25 02:26:36;;;;;;;6.40;2.20;;;;;;;-1.26;62.13;99790.54;1853759;75;21478;-56
2021/03/25 02:29:41;;;;;;;6.10;2.20;;;;;;;-1.26;62.04;99790.98;1844689;75;21159;-57
2021/03/25 02:32:13;;;;;;;8.47;2.47;;;;;;;-1.28;62.02;99783.52;1672147;83;21233;-57
2021/03/25 02:34:46;;;;;;;4.70;2.00;;;;;;;-1.32;62.00;99782.63;1681915;82;21194;-57
2021/03/25 02:37:23;;;;;;;5.80;2.00;;;;;;;-1.34;62.07;99779.54;1697791;82;21197;-57
2021/03/25 02:40:13;;;;;;;8.63;2.30;;;;;;;-1.38;62.10;99780.44;1683532;82;22050;-57
2021/03/25 02:43:04;;;;;;;8.63;2.10;;;;;;;-1.37;62.18;99777.80;1850467;74;25283;-57
2021/03/25 02:45:54;;;;;;;9.53;2.40;;;;;;;-1.41;62.24;99781.30;1818822;77;21059;-57
2021/03/25 02:48:23;;;;;;;6.13;2.50;;;;;;;-1.45;62.27;99778.23;1821652;77;21668;-57
2021/03/25 02:51:18;;;;;;;6.97;2.50;;;;;;;-1.47;62.36;99790.99;1796233;78;21036;-57
2021/03/25 02:53:47;;;;;;;8.10;2.22;;;;;;;-1.49;62.43;99770.30;1823337;77;21187;-57
2021/03/25 02:56:28;;;;;;;10.47;2.13;;;;;;;-1.53;62.45;99787.45;1825864;77;21006;-57
2021/03/25 02:59:20;;;;;;;7.47;2.57;;;;;;;-1.56;62.55;99786.59;1821273;77;21163;-57
2021/03/25 03:01:51;;;;;;;9.47;2.27;;;;;;;-1.60;62.63;99779.09;1826423;77;21409;-57
2021/03/25 03:04:34;;;;;;;6.90;2.10;;;;;;;-1.62;62.72;99782.63;1774807;78;20977;-58
2021/03/25 03:07:14;;;;;;;6.47;2.33;;;;;;;-1.63;62.79;99783.06;1739130;80;21065;-58
2021/03/25 03:09:49;;;;;;;7.13;2.87;;;;;;;-1.63;62.87;99787.02;1788915;79;21009;-58
2021/03/25 03:12:22;;;;;;;6.03;1.70;;;;;;;-1.65;62.91;99787.45;1760659;80;21519;-58
2021/03/25 03:14:55;;;;;;;5.63;2.27;;;;;;;-1.66;62.98;99790.09;1788340;78;21854;-57
2021/03/25 03:17:39;;;;;;;9.20;2.20;;;;;;;-1.68;63.06;99798.44;1784392;78;21273;-57
2021/03/25 03:20:28;;;;;;;5.97;1.95;;;;;;;-1.70;63.12;99794.94;1784962;78;21192;-57
2021/03/25 03:23:15;;;;;;;6.73;1.93;;;;;;;-1.71;63.21;99794.05;1789146;78;21115;-57
2021/03/25 03:25:44;;;;;;;6.30;2.17;;;;;;;-1.72;63.26;99792.29;1756654;79;21426;-57
2021/03/25 03:28:24;;;;;;;9.60;2.20;;;;;;;-1.73;63.24;99791.84;1794497;78;21342;-57
2021/03/25 03:31:05;;;;;;;7.13;2.13;;;;;;;-1.71;63.27;99794.05;1820257;76;25769;-57
2021/03/25 03:33:46;;;;;;;7.58;2.33;;;;;;;-1.76;63.27;99791.83;1795966;78;21255;-57
2021/03/25 03:36:20;;;;;;;11.57;3.27;;;;;;;-1.77;63.31;99796.66;1796370;79;21358;-57
2021/03/25 03:38:56;;;;;;;6.72;3.05;;;;;;;-1.75;63.28;99788.75;1774516;79;21151;-57
2021/03/25 03:41:32;;;;;;;5.17;2.33;;;;;;;-1.76;63.24;99793.14;1789858;77;21423;-57
2021/03/25 03:44:03;;;;;;;5.87;1.80;;;;;;;-1.76;63.18;99785.66;1710487;79;21090;-57
2021/03/25 03:46:31;;;;;;;6.13;2.20;;;;;;;-1.76;63.24;99793.14;1745349;79;21226;-57
2021/03/25 03:49:18;;;;;;;3.67;1.47;;;;;;;-1.77;63.26;99792.70;1747316;79;22918;-57
2021/03/25 03:52:16;;;;;;;7.57;3.80;;;;;;;-1.78;63.25;99790.05;1752984;79;20988;-57
2021/03/25 03:54:45;;;;;;;5.60;2.23;;;;;;;-1.79;63.25;99788.32;1777858;79;21277;-57
2021/03/25 03:57:41;;;;;;;7.13;2.30;;;;;;;-1.81;63.25;99795.34;1722246;79;21528;-57
2021/03/25 04:00:30;;;;;;;9.77;2.40;;;;;;;-1.84;63.30;99793.57;1774656;79;21107;-57
2021/03/25 04:03:29;;;;;;;9.07;2.17;;;;;;;-1.84;63.27;99792.25;1726118;81;22292;-57
2021/03/25 04:06:27;;;;;;;8.07;2.33;;;;;;;-1.83;63.27;99791.81;1776350;80;21118;-57
2021/03/25 04:09:07;;;;;;;13.03;2.57;;;;;;;-1.84;63.31;99796.64;1773797;80;21138;-57
2021/03/25 04:11:55;;;;;;;8.77;2.30;;;;;;;-1.82;63.33;99792.27;1818700;75;25069;-57
2021/03/25 04:14:30;;;;;;;10.17;2.50;;;;;;;-1.85;63.32;99793.56;1761841;79;21720;-57
2021/03/25 04:17:07;;;;;;;10.47;3.37;;;;;;;-1.85;63.36;99794.44;1787533;77;22474;-57
2021/03/25 04:19:45;;;;;;;10.20;3.10;;;;;;;-1.83;63.35;99795.34;1795466;77;21040;-57
2021/03/25 04:22:27;;;;;;;7.87;2.77;;;;;;;-1.77;63.39;99793.14;1825148;76;27044;-57
2021/03/25 04:25:08;;;;;;;8.10;3.00;;;;;;;-1.79;63.41;99794.48;1790755;77;21151;-57
2021/03/25 04:27:42;;;;;;;8.10;3.27;;;;;;;-1.77;63.39;99803.25;1790504;79;21742;-57
2021/03/25 04:30:22;;;;;;;7.65;1.60;;;;;;;-1.73;63.36;99809.43;1788409;79;20976;-57
2021/03/25 04:32:50;;;;;;;4.57;1.53;;;;;;;-1.70;63.36;99803.70;1789021;79;21394;-58
2021/03/25 04:35:19;;;;;;;9.50;1.87;;;;;;;-1.67;63.21;99810.31;1768246;77;21399;-57
2021/03/25 04:37:46;;;;;;;5.87;2.17;;;;;;;-1.65;63.12;99811.64;1791361;78;21099;-57
2021/03/25 04:40:20;;;;;;;8.53;2.03;;;;;;;-1.64;63.10;99807.70;1783317;78;21463;-57
2021/03/25 04:42:47;;;;;;;;;;;;;;;-1.60;63.17;99810.77;1782292;78;20968;-57
2021/03/25 04:45:52;;;;;;;7.53;2.70;;;;;;;-1.53;63.17;99809.88;1773087;80;20172;-58
2021/03/25 04:48:22;;;;;;;8.17;2.73;;;;;;;-1.43;63.07;99807.25;1740332;80;21206;-58
2021/03/25 04:51:09;;;;;;;9.60;2.67;;;;;;;-1.31;62.92;99800.67;1774587;80;21178;-58
2021/03/25 04:53:39;;;;;;;7.03;2.33;;;;;;;-1.20;62.71;99804.20;1776020;78;21643;-59
2021/03/25 04:56:14;;;;;;;7.13;3.23;;;;;;;-1.09;62.56;99803.73;1777365;80;21973;-59
2021/03/25 04:58:46;;;;;;;8.53;2.67;;;;;;;-0.98;62.32;99804.62;1774257;80;22356;-60
2021/03/25 05:01:22;;;;;;;7.40;2.60;;;;;;;-0.88;62.15;99802.84;1744221;80;21204;-60
2021/03/25 05:03:50;;;;;;;9.67;2.97;;;;;;;-0.81;61.95;99808.55;1773483;80;21183;-59
2021/03/25 05:06:24;;;;;;;10.43;3.10;;;;;;;-0.72;61.82;99807.66;1743940;80;22443;-59
2021/03/25 05:08:54;;;;;;;7.95;3.05;;;;;;;-0.54;61.65;99804.97;1736580;81;21580;-59
2021/03/25 05:11:26;;;;;;;10.73;3.40;;;;;;;-0.24;61.45;99815.44;1718558;81;21199;-60
2021/03/25 05:13:58;;;;;;;8.78;3.67;;;;;;;0.08;60.79;99811.34;1721260;82;21214;-59
2021/03/25 05:16:49;;;;;;;14.13;3.77;;;;;;;0.32;60.33;99809.87;1769173;79;21165;-61
2021/03/25 05:19:40;;;;;;;5.97;2.73;;;;;;;0.49;59.78;99811.09;1769940;80;21691;-60
2021/03/25 05:22:27;;;;;;;7.40;3.63;;;;;;;0.64;59.27;99808.77;1764095;79;21154;-62
2021/03/25 05:25:09;;;;;;;7.70;3.90;;;;;;;0.67;58.78;99820.68;1751195;80;21182;-62
2021/03/25 05:27:59;;;;;;;8.60;3.83;;;;;;;0.64;58.69;99825.98;1769114;79;21242;-61
2021/03/25 05:30:30;;;;;;;9.73;3.10;;;;;;;0.65;58.66;99821.13;1776401;80;21183;-61
2021/03/25 05:33:10;;;;;;;9.93;4.23;;;;;;;0.68;58.60;99821.96;1775243;80;21649;-61
2021/03/25 05:35:44;;;;;;;9.10;4.13;;;;;;;0.72;58.46;99821.06;1780384;80;21106;-60
2021/03/25 05:38:11;;;;;;;10.47;3.93;;;;;;;0.74;58.52;99829.01;1777043;80;21063;-60
2021/03/25 05:40:49;;;;;;;10.30;3.53;;;;;;;0.79;58.59;99819.69;1778574;80;21194;-60
2021/03/25 05:43:49;;;;;;;12.83;4.33;;;;;;;0.87;58.40;99820.05;1741910;80;21434;-60
2021/03/25 05:46:51;;;;;;;7.67;3.00;;;;;;;0.91;58.34;99828.44;1743073;79;21957;-59
2021/03/25 05:49:50;;;;;;;6.93;3.83;;;;;;;1.03;58.26;99828.75;1764103;79;21786;-60
2021/03/25 05:52:43;;;;;;;12.67;4.23;;;;;;;1.17;58.04;99830.86;1763356;79;21630;-60
2021/03/25 05:55:53;;;;;;;10.43;3.40;;;;;;;1.27;57.56;99824.58;1762180;79;21512;-61
2021/03/25 05:58:46;;;;;;;8.10;2.93;;;;;;;1.34;57.27;99826.72;1764467;79;21208;-60
2021/03/25 06:01:31;;;;;;;8.60;3.10;;;;;;;1.41;57.17;99831.06;1767758;79;21263;-61
2021/03/25 06:04:22;;;;;;;7.43;3.60;;;;;;;1.47;56.93;99829.22;1765625;79;21592;-60
2021/03/25 06:06:58;;;;;;;10.57;4.23;;;;;;;1.47;56.66;99826.56;1768256;79;21202;-61
2021/03/25 06:09:47;;;;;;;16.17;4.53;;;;;;;1.49;56.53;99831.86;1766264;79;21208;-62
2021/03/25 06:12:51;;;;;;;9.37;3.70;;;;;;;1.48;56.60;99824.80;1767483;79;21602;-62
2021/03/25 06:16:15;;;;;;;10.70;3.27;;;;;;;1.56;56.63;99832.22;1760309;79;21658;-62
2021/03/25 06:19:07;;;;;;;7.03;2.90;;;;;;;1.64;56.11;99833.02;1783028;78;21528;-62
2021/03/25 06:22:00;;;;;;;11.27;3.90;;;;;;;1.70;54.78;99834.27;1688539;83;21204;-62
2021/03/25 06:24:53;;;;;;;10.30;3.30;;;;;;;1.73;54.45;99833.36;1688635;83;21759;-62
2021/03/25 06:27:56;;;;;;;8.90;3.90;;;;;;;1.76;54.63;99838.64;1683566;83;21217;-62
2021/03/25 06:30:40;;;;;;;8.50;2.77;;;;;;;1.81;54.66;99832.82;1694128;82;21515;-59
2021/03/25 06:33:36;;;;;;;7.15;2.80;;;;;;;1.89;53.69;99834.48;1688301;83;21216;-61
2021/03/25 06:36:08;;;;;;;16.83;1.90;;;;;;;1.99;53.35;99839.24;1695041;83;21523;-60
2021/03/25 06:38:52;;;;;;;6.83;2.73;;;;;;;2.07;52.49;99837.81;1663214;84;21173;-62
2021/03/25 06:41:26;;;;;;;;;;;;;;;2.10;51.63;99834.69;1704269;81;22333;-61
2021/03/25 06:44:31;;;;;;;10.37;2.87;;;;;;;2.12;50.92;99830.24;1720229;81;22041;-61
2021/03/25 06:47:07;;;;;;;7.80;2.60;;;;;;;2.13;50.97;99827.98;1724208;81;21524;-62
2021/03/25 06:49:46;;;;;;;10.20;1.63;;;;;;;2.19;50.33;99844.31;1727032;81;21574;-61
2021/03/25 06:52:24;;;;;;;5.03;1.47;;;;;;;2.23;50.26;99830.08;1709425;82;21189;-62
2021/03/25 06:55:00;;;;;;;3.53;1.20;;;;;;;2.26;49.81;99826.06;1728656;81;21948;-62
2021/03/25 06:57:33;;;;;;;3.73;1.30;;;;;;;2.33;50.00;99824.19;1725452;81;22279;-62
2021/03/25 07:00:00;;;;;;;6.87;1.37;;;;;;;2.40;49.70;99828.06;1721863;81;21242;-62
2021/03/25 07:02:29;;;;;;;5.33;1.20;;;;;;;2.49;49.51;99831.92;1723702;81;22027;-63
2021/03/25 07:04:59;;;;;;;2.60;1.33;;;;;;;2.55;48.66;99833.63;1725189;81;21145;-62
2021/03/25 07:07:33;;;;;;;8.37;2.70;;;;;;;2.57;49.05;99833.14;1720949;81;21154;-63
2021/03/25 07:10:02;;;;;;;5.40;1.43;;;;;;;2.63;48.91;99830.41;1725928;81;21132;-62
2021/03/25 07:12:39;;;;;;;5.77;1.73;;;;;;;2.65;48.13;99836.11;1727938;81;21620;-63
2021/03/25 07:15:08;;;;;;;14.83;4.83;;;;;;;2.64;47.88;99826.83;1725467;81;21106;-63
2021/03/25 07:17:41;;;;;;;4.53;1.57;;;;;;;2.67;48.14;99832.11;1723928;81;21413;-63
2021/03/25 07:20:23;;;;;;;;;;;;;;;2.72;47.97;99820.09;1726904;81;21572;-62
2021/03/25 07:23:11;;;;;;;5.87;1.10;;;;;;;2.78;47.59;99827.96;1726983;81;21150;-62
2021/03/25 07:25:43;;;;;;;3.10;0.90;;;;;;;2.85;47.35;99816.32;1726106;81;21606;-64
2021/03/25 07:28:23;;;;;;;5.00;1.00;;;;;;;2.94;46.71;99819.72;1726595;81;21442;-63
2021/03/25 07:30:55;;;;;;;3.40;0.80;;;;;;;3.01;45.05;99819.16;1725883;81;21110;-60
2021/03/25 07:33:27;;;;;;;3.33;0.90;;;;;;;2.98;44.54;99818.74;1726274;81;21101;-63
2021/03/25 07:36:10;;;;;;;1.77;0.80;;;;;;;2.98;44.67;99818.74;1717039;81;21017;-63
2021/03/25 07:38:39;;;;;;;2.20;0.70;;;;;;;3.00;43.60;99817.39;1669203;84;21162;-63
2021/03/25 07:41:19;;;;;;;4.33;0.70;;;;;;;3.04;43.96;99814.67;1717793;82;21320;-61
2021/03/25 07:44:04;;;;;;;3.80;0.90;;;;;;;3.11;43.18;99809.24;1704272;82;21416;-62
2021/03/25 07:46:46;;;;;;;1.13;0.60;;;;;;;3.19;41.41;99799.34;1717135;82;21117;-63
2021/03/25 07:49:16;;;;;;;4.37;0.60;;;;;;;3.23;42.20;99803.23;1714322;82;22122;-63
2021/03/25 07:52:04;;;;;;;5.53;1.40;;;;;;;3.34;41.78;99799.94;1699127;82;21089;-64
2021/03/25 07:54:40;;;;;;;5.73;0.50;;;;;;;3.42;41.30;99803.79;1700289;82;21170;-63
2021/03/25 07:59:59;;;;;;;1.63;0.40;;;;;;;3.60;38.95;99795.46;1825551;75;26683;-63
2021/03/25 08:02:39;;;;;;;3.63;0.53;;;;;;;3.62;38.55;99800.76;1795306;79;21051;-64
2021/03/25 08:05:17;;;;;;;3.47;0.80;;;;;;;3.66;37.21;99825.95;1793074;79;22247;-61
2021/03/25 08:07:46;;;;;;;1.00;0.40;;;;;;;3.67;36.92;99796.21;1789657;77;21326;-62
2021/03/25 08:10:39;;;;;;;1.00;0.47;;;;;;;3.66;37.04;99791.34;1789464;79;21052;-61
2021/03/25 08:13:24;;;;;;;1.10;0.40;;;;;;;3.72;37.14;99801.01;1790106;78;21056;-63
2021/03/25 08:15:56;;;;;;;1.70;0.50;;;;;;;3.84;36.19;99799.86;1791895;79;20980;-63
2021/03/25 08:19:01;;;;;;;1.33;0.50;;;;;;;3.93;36.48;99796.56;1781300;77;21439;-65
2021/03/25 08:21:48;;;;;;;0.90;0.40;;;;;;;3.99;36.13;99792.92;1793780;79;21209;-62
2021/03/25 08:24:56;;;;;;;3.73;0.50;;;;;;;4.07;36.07;99800.30;1790418;79;21127;-63
2021/03/25 08:28:13;;;;;;;5.60;0.83;;;;;;;4.11;36.05;99799.30;1788816;77;21146;-62
2021/03/25 08:31:04;;;;;;;1.87;0.50;;;;;;;4.16;34.86;99799.64;1794609;77;21398;-63
2021/03/25 08:34:10;;;;;;;0.70;0.50;;;;;;;4.21;34.57;99807.98;1789390;77;21420;-64
2021/03/25 08:37:09;;;;;;;0.90;0.40;;;;;;;4.24;34.08;99805.25;1792464;79;21162;-65
2021/03/25 08:39:53;;;;;;;2.67;0.40;;;;;;;4.33;34.49;99809.05;1795116;77;21163;-64
2021/03/25 08:42:37;;;;;;;4.85;0.30;;;;;;;4.42;33.70;99813.69;1780022;77;21202;-62
2021/03/25 08:46:59;;;;;;;2.20;0.37;;;;;;;4.47;32.32;99810.49;1793493;79;26643;-62
2021/03/25 08:49:49;;;;;;;0.97;0.40;;;;;;;4.44;32.98;99810.55;1703563;82;21163;-65
2021/03/25 08:52:17;;;;;;;0.93;0.40;;;;;;;4.46;31.73;99804.73;1748946;80;22120;-63
2021/03/25 08:54:51;;;;;;;2.97;0.90;;;;;;;4.48;33.19;99801.59;1721854;82;21080;-63
2021/03/25 08:57:28;;;;;;;3.15;0.68;;;;;;;4.55;33.43;99797.86;1757957;80;21220;-64
2021/03/25 09:00:14;;;;;;;6.97;1.40;;;;;;;4.65;32.93;99796.31;1752952;80;21608;-63
2021/03/25 09:02:50;;;;;;;1.30;0.70;;;;;;;4.70;33.20;99793.95;1754891;80;21205;-64
2021/03/25 09:05:30;;;;;;;2.80;1.40;;;;;;;4.74;32.66;99792.10;1748996;80;22459;-62
2021/03/25 09:08:00;;;;;;;1.40;0.50;;;;;;;4.77;32.44;99796.01;1758641;80;21785;-63
2021/03/25 09:10:46;;;;;;;0.67;0.40;;;;;;;4.79;32.01;99795.06;1755843;80;21205;-63
2021/03/25 09:13:18;;;;;;;2.03;0.50;;;;;;;4.82;32.18;99791.45;1756846;80;21072;-62
2021/03/25 09:15:45;;;;;;;4.10;0.50;;;;;;;4.85;32.17;99789.57;1755283;80;21191;-65
2021/03/25 09:18:19;;;;;;;4.77;0.60;;;;;;;4.86;32.59;99791.78;1690709;82;21368;-62
2021/03/25 09:20:54;;;;;;;0.93;0.50;;;;;;;4.89;32.73;99791.72;1763482;80;21494;-65
2021/03/25 09:23:36;;;;;;;2.30;0.63;;;;;;;4.94;32.36;99778.68;1697074;82;21138;-64
2021/03/25 09:26:21;;;;;;;0.73;0.40;;;;;;;4.94;32.72;99789.80;1758662;80;21173;-63
2021/03/25 09:29:02;;;;;;;2.67;0.50;;;;;;;4.98;32.88;99782.16;1756444;80;21175;-64
2021/03/25 09:31:59;;;;;;;0.70;0.40;;;;;;;5.08;33.07;99788.14;1689729;82;21218;-64
2021/03/25 09:34:48;;;;;;;1.47;0.30;;;;;;;5.15;32.49;99790.61;1753443;80;21211;-64
2021/03/25 09:37:25;;;;;;;4.07;0.50;;;;;;;5.22;32.06;99779.31;1756632;80;21222;-64
2021/03/25 09:40:25;;;;;;;1.03;0.40;;;;;;;5.26;32.62;99773.00;1819427;75;27517;-61
2021/03/25 09:43:30;;;;;;;2.33;0.57;;;;;;;5.32;32.76;99776.83;1790798;78;21283;-62
2021/03/25 09:46:00;;;;;;;0.85;0.30;;;;;;;5.36;31.35;99777.14;1801156;77;21357;-62
2021/03/25 09:48:28;;;;;;;3.63;0.40;;;;;;;5.33;30.94;99778.13;1785936;78;20981;-64
2021/03/25 09:51:16;;;;;;;0.50;0.30;;;;;;;5.40;30.88;99771.28;1796279;78;20988;-64
2021/03/25 09:53:53;;;;;;;1.90;0.30;;;;;;;5.44;31.39;99770.30;1796630;77;20941;-63
2021/03/25 09:56:32;;;;;;;0.83;0.33;;;;;;;5.47;30.24;99767.06;1798806;78;21725;-63
2021/03/25 09:59:00;;;;;;;3.20;0.90;;;;;;;5.49;30.44;99772.37;1793366;77;22109;-64
2021/03/25 10:01:52;;;;;;;0.97;0.50;;;;;;;5.56;31.08;99776.61;1804955;78;21412;-64
2021/03/25 10:04:29;;;;;;;0.62;0.40;;;;;;;5.62;30.84;99776.44;1796253;77;21151;-61
2021/03/25 10:07:00;;;;;;;0.82;0.30;;;;;;;5.70;30.29;99779.31;1798402;78;21118;-64
2021/03/25 10:09:52;;;;;;;0.63;0.40;;;;;;;5.79;29.95;99777.30;1798582;77;21530;-64
2021/03/25 10:12:53;;;;;;;0.57;0.23;;;;;;;5.84;30.07;99766.92;1799369;78;21557;-63
2021/03/25 10:15:41;;;;;;;0.50;0.30;;;;;;;5.93;30.04;99772.49;1798653;77;21142;-64
2021/03/25 10:18:18;;;;;;;0.57;0.30;;;;;;;6.04;30.15;99771.23;1800254;77;21473;-62
2021/03/25 10:21:05;;;;;;;0.70;0.40;;;;;;;6.12;29.40;99774.17;1800888;78;21128;-64
2021/03/25 10:23:52;;;;;;;4.37;0.40;;;;;;;6.12;29.34;99764.81;1773239;77;21103;-64
2021/03/25 10:26:38;;;;;;;0.70;0.30;;;;;;;6.18;29.63;99770.84;1798649;78;22203;-65
2021/03/25 10:29:23;;;;;;;0.80;0.40;;;;;;;6.26;29.27;99764.80;1795590;77;21131;-64
2021/03/25 10:31:56;;;;;;;2.25;0.42;;;;;;;6.32;29.06;99763.27;1767820;79;21215;-65
2021/03/25 10:34:38;;;;;;;1.30;0.40;;;;;;;6.36;29.68;99766.27;1795301;78;21190;-63
2021/03/25 10:37:35;;;;;;;2.30;0.50;;;;;;;6.36;28.64;99762.27;1792302;78;21640;-60
2021/03/25 10:40:24;;;;;;;1.00;0.40;;;;;;;6.28;29.30;99761.62;1723636;81;21429;-63
2021/03/25 10:42:58;;;;;;;2.47;0.80;;;;;;;6.31;29.62;99759.30;1725617;81;21588;-65
2021/03/25 10:45:46;;;;;;;1.10;0.60;;;;;;;6.36;29.20;99745.34;1751258;81;21130;-63
2021/03/25 10:48:23;;;;;;;0.83;0.50;;;;;;;6.33;30.06;99745.43;1728402;81;21230;-62
2021/03/25 10:50:55;;;;;;;1.33;0.50;;;;;;;6.40;29.97;99743.85;1754165;81;21390;-63
2021/03/25 10:53:27;;;;;;;1.30;0.50;;;;;;;6.47;29.66;99745.86;1750709;81;22325;-62
2021/03/25 10:56:21;;;;;;;4.10;0.80;;;;;;;6.52;29.09;99738.59;1752514;81;21174;-63
2021/03/25 10:59:06;;;;;;;1.00;0.50;;;;;;;6.56;28.56;99742.89;1669208;82;21250;-63
2021/03/25 11:01:34;;;;;;;;;;;;;;;6.57;28.24;99741.98;1750356;81;21178;-62
2021/03/25 11:04:25;;;;;;;0.67;0.40;;;;;;;6.54;27.58;99745.23;1750124;81;20689;-63
2021/03/25 11:06:54;;;;;;;0.90;0.40;;;;;;;6.51;28.34;99736.84;1726263;82;21219;-64
2021/03/25 11:09:27;;;;;;;1.40;0.43;;;;;;;6.55;28.00;99746.98;1720198;82;21984;-63
2021/03/25 11:12:13;;;;;;;2.75;0.40;;;;;;;6.54;28.55;99728.72;1719890;82;21608;-59
2021/03/25 11:14:46;;;;;;;8.23;0.30;;;;;;;6.60;29.33;99732.98;1751089;81;21633;-62
2021/03/25 11:17:27;;;;;;;0.70;0.30;;;;;;;6.66;28.89;99739.01;1752328;81;21099;-63
2021/03/25 11:20:01;;;;;;;0.90;0.40;;;;;;;6.68;29.09;99724.25;1755068;81;21194;-63
2021/03/25 11:22:31;;;;;;;0.77;0.40;;;;;;;6.69;28.58;99730.89;1725723;81;21670;-62
2021/03/25 11:25:00;;;;;;;1.80;0.40;;;;;;;6.72;29.15;99740.13;1751977;81;21672;-64
2021/03/25 11:27:28;;;;;;;3.50;0.50;;;;;;;6.77;29.04;99722.61;1748668;81;21135;-62
2021/03/25 11:30:04;;;;;;;0.83;0.50;;;;;;;6.78;28.94;99724.37;1729879;81;22236;-63
2021/03/25 11:32:41;;;;;;;0.80;0.40;;;;;;;6.79;28.93;99714.95;1753982;81;22287;-61
2021/03/25 11:35:25;;;;;;;2.20;0.60;;;;;;;6.77;28.98;99709.23;1750677;81;21202;-62
2021/03/25 11:37:56;;;;;;;1.60;0.60;;;;;;;6.77;29.44;99709.23;1746460;81;21206;-63
2021/03/25 11:40:41;;;;;;;0.90;0.40;;;;;;;6.79;28.96;99713.62;1723272;81;21668;-63
2021/03/25 11:43:16;;;;;;;3.80;0.50;;;;;;;6.76;28.46;99710.16;1715911;82;21562;-63
2021/03/25 11:45:46;;;;;;;1.27;0.63;;;;;;;6.70;29.04;99706.36;1722037;81;21229;-62
2021/03/25 11:48:30;;;;;;;2.27;0.93;;;;;;;6.69;28.95;99713.51;1740701;81;21226;-61
2021/03/25 11:51:19;;;;;;;3.37;0.60;;;;;;;6.71;27.66;99712.13;1744758;81;21210;-64
2021/03/25 11:53:51;;;;;;;1.30;0.77;;;;;;;6.68;28.27;99709.08;1723454;81;21815;-62
2021/03/25 11:56:35;;;;;;;8.83;2.30;;;;;;;6.72;27.73;99709.38;1726890;81;21478;-63
2021/03/25 11:59:13;;;;;;;7.20;1.57;;;;;;;6.77;28.39;99707.44;1720225;81;21222;-62
2021/03/25 12:01:41;;;;;;;1.10;0.70;;;;;;;6.88;28.42;99707.55;1736821;81;21512;-62
2021/03/25 12:04:22;;;;;;;3.57;0.50;;;;;;;6.95;27.52;99699.25;1747189;81;21178;-62
2021/03/25 12:07:06;;;;;;;2.23;0.60;;;;;;;6.96;27.41;99698.33;1720607;81;21256;-62
2021/03/25 12:09:34;;;;;;;1.62;0.90;;;;;;;6.98;27.87;99697.79;1735458;81;21107;-62
2021/03/25 12:12:06;;;;;;;8.93;1.27;;;;;;;7.05;28.17;99699.81;1739166;81;21186;-60
2021/03/25 12:14:34;;;;;;;5.33;0.57;;;;;;;7.13;27.87;99697.28;1714629;81;21956;-62
2021/03/25 12:17:04;;;;;;;3.37;0.40;;;;;;;7.24;27.81;99699.55;1715412;81;21116;-63
2021/03/25 12:19:33;;;;;;;1.30;0.47;;;;;;;7.33;27.58;99695.67;1735469;81;21202;-62
2021/03/25 12:22:06;;;;;;;1.03;0.50;;;;;;;7.35;28.00;99690.69;1742031;81;21435;-62
2021/03/25 12:24:34;;;;;;;2.67;0.50;;;;;;;7.36;28.37;99688.42;1739547;81;21560;-60
2021/03/25 12:27:02;;;;;;;0.97;0.50;;;;;;;7.42;28.46;99692.66;1729795;81;21199;-63
2021/03/25 12:29:30;;;;;;;1.10;0.53;;;;;;;7.45;27.92;99691.23;1718754;81;21650;-63
2021/03/25 12:31:59;;;;;;;2.97;0.67;;;;;;;7.46;28.19;99684.95;1715961;81;21228;-62
2021/03/25 12:34:28;;;;;;;3.33;0.50;;;;;;;7.49;28.67;99687.02;1713674;81;21198;-62
2021/03/25 12:36:56;;;;;;;1.47;0.60;;;;;;;7.57;29.02;99689.45;1717102;81;21628;-63
2021/03/25 12:39:26;;;;;;;1.00;0.40;;;;;;;7.61;28.96;99692.41;1720882;81;21217;-62